sensor_id;sensor_type;location;lat;lon;timestamp;P1;durP1;ratioP1;P2;durP2;ratioP2
69716;SDS011;65362;46.144;19.666;2022-12-20T00:01:28;40.15;;;25.65;;
69716;SDS011;65362;46.144;19.666;2022-12-20T00:04:01;38.85;;;25.38;;
69716;SDS011;65362;46.144;19.666;2022-12-20T00:06:32;38.67;;;25.80;;
69716;SDS011;65362;46.144;19.666;2022-12-20T00:09:02;37.30;;;24.75;;
69716;SDS011;65362;46.144;19.666;2022-12-20T00:11:32;39.55;;;25.90;;
69716;SDS011;65362;46.144;19.666;2022-12-20T00:14:01;38.83;;;26.23;;
69716;SDS011;65362;46.144;19.666;2022-12-20T00:16:28;41.15;;;26.85;;
69716;SDS011;65362;46.144;19.666;2022-12-20T00:18:57;41.15;;;26.63;;
69716;SDS011;65362;46.144;19.666;2022-12-20T00:21:26;37.38;;;25.40;;
69716;SDS011;65362;46.144;19.666;2022-12-20T00:23:54;40.00;;;26.40;;
69716;SDS011;65362;46.144;19.666;2022-12-20T00:26:24;37.88;;;25.35;;
69716;SDS011;65362;46.144;19.666;2022-12-20T00:28:54;39.80;;;26.08;;
69716;SDS011;65362;46.144;19.666;2022-12-20T00:31:23;38.97;;;25.52;;
69716;SDS011;65362;46.144;19.666;2022-12-20T00:33:53;39.85;;;26.02;;
69716;SDS011;65362;46.144;19.666;2022-12-20T00:36:22;42.17;;;27.20;;
69716;SDS011;65362;46.144;19.666;2022-12-20T00:38:52;38.10;;;25.90;;
69716;SDS011;65362;46.144;19.666;2022-12-20T00:41:22;40.83;;;27.38;;
69716;SDS011;65362;46.144;19.666;2022-12-20T00:43:53;39.20;;;26.17;;
69716;SDS011;65362;46.144;19.666;2022-12-20T00:46:22;39.90;;;26.38;;
69716;SDS011;65362;46.144;19.666;2022-12-20T00:48:52;37.80;;;25.83;;
69716;SDS011;65362;46.144;19.666;2022-12-20T00:51:22;39.38;;;26.25;;
69716;SDS011;65362;46.144;19.666;2022-12-20T00:53:53;39.80;;;26.77;;
69716;SDS011;65362;46.144;19.666;2022-12-20T00:56:21;38.83;;;25.95;;
69716;SDS011;65362;46.144;19.666;2022-12-20T00:58:49;38.17;;;26.02;;
69716;SDS011;65362;46.144;19.666;2022-12-20T01:01:21;39.60;;;25.50;;
69716;SDS011;65362;46.144;19.666;2022-12-20T01:03:51;40.40;;;25.17;;
69716;SDS011;65362;46.144;19.666;2022-12-20T01:06:20;39.13;;;26.75;;
69716;SDS011;65362;46.144;19.666;2022-12-20T01:08:49;38.92;;;25.17;;
69716;SDS011;65362;46.144;19.666;2022-12-20T01:11:17;37.95;;;24.88;;
69716;SDS011;65362;46.144;19.666;2022-12-20T01:13:52;38.63;;;25.40;;
69716;SDS011;65362;46.144;19.666;2022-12-20T01:16:23;39.38;;;25.90;;
69716;SDS011;65362;46.144;19.666;2022-12-20T01:19:15;39.13;;;26.30;;
69716;SDS011;65362;46.144;19.666;2022-12-20T01:21:44;36.30;;;24.92;;
69716;SDS011;65362;46.144;19.666;2022-12-20T01:24:13;38.83;;;25.63;;
69716;SDS011;65362;46.144;19.666;2022-12-20T01:26:41;37.10;;;25.23;;
69716;SDS011;65362;46.144;19.666;2022-12-20T01:29:10;36.33;;;25.15;;
69716;SDS011;65362;46.144;19.666;2022-12-20T01:31:37;33.97;;;24.35;;
69716;SDS011;65362;46.144;19.666;2022-12-20T01:34:05;38.25;;;25.38;;
69716;SDS011;65362;46.144;19.666;2022-12-20T01:36:34;37.25;;;24.77;;
69716;SDS011;65362;46.144;19.666;2022-12-20T01:41:36;34.30;;;23.45;;
69716;SDS011;65362;46.144;19.666;2022-12-20T01:44:52;36.03;;;23.90;;
69716;SDS011;65362;46.144;19.666;2022-12-20T01:46:52;34.33;;;23.55;;
69716;SDS011;65362;46.144;19.666;2022-12-20T01:51:52;36.53;;;24.08;;
69716;SDS011;65362;46.144;19.666;2022-12-20T01:54:25;32.28;;;21.88;;
69716;SDS011;65362;46.144;19.666;2022-12-20T01:56:57;35.80;;;23.25;;
69716;SDS011;65362;46.144;19.666;2022-12-20T01:59:28;34.60;;;23.10;;
69716;SDS011;65362;46.144;19.666;2022-12-20T02:01:58;34.90;;;23.13;;
69716;SDS011;65362;46.144;19.666;2022-12-20T02:04:31;32.55;;;21.42;;
69716;SDS011;65362;46.144;19.666;2022-12-20T02:06:59;34.08;;;22.58;;
69716;SDS011;65362;46.144;19.666;2022-12-20T02:09:28;32.15;;;21.80;;
69716;SDS011;65362;46.144;19.666;2022-12-20T02:14:59;32.60;;;21.58;;
69716;SDS011;65362;46.144;19.666;2022-12-20T02:26:37;26.70;;;19.52;;
69716;SDS011;65362;46.144;19.666;2022-12-20T02:32:10;29.70;;;19.65;;
69716;SDS011;65362;46.144;19.666;2022-12-20T02:34:43;27.45;;;19.40;;
69716;SDS011;65362;46.144;19.666;2022-12-20T02:37:12;27.00;;;19.13;;
69716;SDS011;65362;46.144;19.666;2022-12-20T02:39:39;31.63;;;20.27;;
69716;SDS011;65362;46.144;19.666;2022-12-20T02:42:14;26.40;;;18.67;;
69716;SDS011;65362;46.144;19.666;2022-12-20T02:44:51;25.23;;;18.50;;
69716;SDS011;65362;46.144;19.666;2022-12-20T02:50:21;27.52;;;19.25;;
69716;SDS011;65362;46.144;19.666;2022-12-20T02:52:58;25.23;;;18.60;;
69716;SDS011;65362;46.144;19.666;2022-12-20T02:55:30;26.38;;;18.13;;
69716;SDS011;65362;46.144;19.666;2022-12-20T02:58:39;26.70;;;18.25;;
69716;SDS011;65362;46.144;19.666;2022-12-20T03:01:16;22.98;;;17.40;;
69716;SDS011;65362;46.144;19.666;2022-12-20T03:03:49;26.07;;;17.53;;
69716;SDS011;65362;46.144;19.666;2022-12-20T03:06:18;24.98;;;17.75;;
69716;SDS011;65362;46.144;19.666;2022-12-20T03:08:46;25.08;;;17.00;;
69716;SDS011;65362;46.144;19.666;2022-12-20T03:11:14;26.27;;;17.40;;
69716;SDS011;65362;46.144;19.666;2022-12-20T03:13:42;25.30;;;16.55;;
69716;SDS011;65362;46.144;19.666;2022-12-20T03:16:09;24.52;;;17.27;;
69716;SDS011;65362;46.144;19.666;2022-12-20T03:18:37;25.58;;;16.65;;
69716;SDS011;65362;46.144;19.666;2022-12-20T03:21:05;24.83;;;16.73;;
69716;SDS011;65362;46.144;19.666;2022-12-20T03:23:33;21.95;;;16.73;;
69716;SDS011;65362;46.144;19.666;2022-12-20T03:26:01;23.25;;;16.30;;
69716;SDS011;65362;46.144;19.666;2022-12-20T03:28:36;23.20;;;16.17;;
69716;SDS011;65362;46.144;19.666;2022-12-20T03:31:05;21.27;;;15.57;;
69716;SDS011;65362;46.144;19.666;2022-12-20T03:33:40;21.95;;;15.75;;
69716;SDS011;65362;46.144;19.666;2022-12-20T03:36:08;21.48;;;15.80;;
69716;SDS011;65362;46.144;19.666;2022-12-20T03:38:36;22.75;;;16.23;;
69716;SDS011;65362;46.144;19.666;2022-12-20T03:41:05;22.23;;;15.32;;
69716;SDS011;65362;46.144;19.666;2022-12-20T03:43:33;22.77;;;15.25;;
69716;SDS011;65362;46.144;19.666;2022-12-20T03:46:01;19.92;;;15.00;;
69716;SDS011;65362;46.144;19.666;2022-12-20T03:48:33;21.83;;;15.63;;
69716;SDS011;65362;46.144;19.666;2022-12-20T03:51:01;20.30;;;15.02;;
69716;SDS011;65362;46.144;19.666;2022-12-20T03:53:29;20.67;;;14.82;;
69716;SDS011;65362;46.144;19.666;2022-12-20T03:55:56;19.60;;;14.73;;
69716;SDS011;65362;46.144;19.666;2022-12-20T03:58:24;20.10;;;14.10;;
69716;SDS011;65362;46.144;19.666;2022-12-20T04:00:53;22.67;;;14.57;;
69716;SDS011;65362;46.144;19.666;2022-12-20T04:03:51;19.58;;;13.95;;
69716;SDS011;65362;46.144;19.666;2022-12-20T04:06:19;19.05;;;13.88;;
69716;SDS011;65362;46.144;19.666;2022-12-20T04:08:49;20.60;;;13.43;;
69716;SDS011;65362;46.144;19.666;2022-12-20T04:11:24;18.95;;;13.63;;
69716;SDS011;65362;46.144;19.666;2022-12-20T04:13:58;17.95;;;13.07;;
69716;SDS011;65362;46.144;19.666;2022-12-20T04:16:26;18.77;;;13.38;;
69716;SDS011;65362;46.144;19.666;2022-12-20T04:18:56;17.90;;;13.27;;
69716;SDS011;65362;46.144;19.666;2022-12-20T04:21:29;16.13;;;12.55;;
69716;SDS011;65362;46.144;19.666;2022-12-20T04:23:59;17.17;;;12.75;;
69716;SDS011;65362;46.144;19.666;2022-12-20T04:26:38;17.52;;;12.52;;
69716;SDS011;65362;46.144;19.666;2022-12-20T04:29:05;16.48;;;12.82;;
69716;SDS011;65362;46.144;19.666;2022-12-20T04:31:33;15.70;;;12.02;;
69716;SDS011;65362;46.144;19.666;2022-12-20T04:34:01;17.63;;;12.15;;
69716;SDS011;65362;46.144;19.666;2022-12-20T04:36:30;15.60;;;11.63;;
69716;SDS011;65362;46.144;19.666;2022-12-20T04:39:01;14.98;;;11.90;;
69716;SDS011;65362;46.144;19.666;2022-12-20T04:41:36;15.18;;;11.88;;
69716;SDS011;65362;46.144;19.666;2022-12-20T04:44:08;18.83;;;11.55;;
69716;SDS011;65362;46.144;19.666;2022-12-20T04:46:37;16.10;;;12.13;;
69716;SDS011;65362;46.144;19.666;2022-12-20T04:49:08;15.27;;;11.40;;
69716;SDS011;65362;46.144;19.666;2022-12-20T04:51:39;15.38;;;11.60;;
69716;SDS011;65362;46.144;19.666;2022-12-20T04:54:06;16.23;;;11.25;;
69716;SDS011;65362;46.144;19.666;2022-12-20T04:56:40;15.65;;;11.38;;
69716;SDS011;65362;46.144;19.666;2022-12-20T04:59:10;13.73;;;10.77;;
69716;SDS011;65362;46.144;19.666;2022-12-20T05:01:41;14.32;;;10.90;;
69716;SDS011;65362;46.144;19.666;2022-12-20T05:04:09;15.52;;;10.63;;
69716;SDS011;65362;46.144;19.666;2022-12-20T05:06:38;14.38;;;10.68;;
69716;SDS011;65362;46.144;19.666;2022-12-20T05:09:06;14.27;;;10.68;;
69716;SDS011;65362;46.144;19.666;2022-12-20T05:11:33;15.07;;;10.75;;
69716;SDS011;65362;46.144;19.666;2022-12-20T05:14:04;15.52;;;10.60;;
69716;SDS011;65362;46.144;19.666;2022-12-20T05:16:32;15.07;;;10.73;;
69716;SDS011;65362;46.144;19.666;2022-12-20T05:19:00;13.65;;;10.40;;
69716;SDS011;65362;46.144;19.666;2022-12-20T05:21:32;13.20;;;9.95;;
69716;SDS011;65362;46.144;19.666;2022-12-20T05:24:18;12.35;;;9.55;;
69716;SDS011;65362;46.144;19.666;2022-12-20T05:27:26;13.82;;;10.73;;
69716;SDS011;65362;46.144;19.666;2022-12-20T05:29:54;12.05;;;9.68;;
69716;SDS011;65362;46.144;19.666;2022-12-20T05:32:22;12.15;;;9.68;;
69716;SDS011;65362;46.144;19.666;2022-12-20T05:34:52;13.23;;;9.70;;
69716;SDS011;65362;46.144;19.666;2022-12-20T05:37:19;13.75;;;10.07;;
69716;SDS011;65362;46.144;19.666;2022-12-20T05:39:47;11.45;;;9.40;;
69716;SDS011;65362;46.144;19.666;2022-12-20T05:42:19;11.75;;;9.45;;
69716;SDS011;65362;46.144;19.666;2022-12-20T05:44:50;12.20;;;9.18;;
69716;SDS011;65362;46.144;19.666;2022-12-20T05:47:19;14.63;;;9.90;;
69716;SDS011;65362;46.144;19.666;2022-12-20T05:49:50;11.13;;;8.65;;
69716;SDS011;65362;46.144;19.666;2022-12-20T05:52:18;14.32;;;10.00;;
69716;SDS011;65362;46.144;19.666;2022-12-20T05:54:46;11.85;;;9.30;;
69716;SDS011;65362;46.144;19.666;2022-12-20T05:57:16;11.80;;;8.82;;
69716;SDS011;65362;46.144;19.666;2022-12-20T05:59:45;10.77;;;8.85;;
69716;SDS011;65362;46.144;19.666;2022-12-20T06:02:19;11.35;;;8.60;;
69716;SDS011;65362;46.144;19.666;2022-12-20T06:04:50;11.88;;;9.25;;
69716;SDS011;65362;46.144;19.666;2022-12-20T06:07:21;10.75;;;8.60;;
69716;SDS011;65362;46.144;19.666;2022-12-20T06:09:53;10.90;;;8.65;;
69716;SDS011;65362;46.144;19.666;2022-12-20T06:12:26;12.40;;;8.43;;
69716;SDS011;65362;46.144;19.666;2022-12-20T06:14:53;11.25;;;8.80;;
69716;SDS011;65362;46.144;19.666;2022-12-20T06:17:21;13.23;;;8.80;;
69716;SDS011;65362;46.144;19.666;2022-12-20T06:19:50;11.60;;;8.35;;
69716;SDS011;65362;46.144;19.666;2022-12-20T06:22:18;10.55;;;8.35;;
69716;SDS011;65362;46.144;19.666;2022-12-20T06:24:49;11.27;;;8.23;;
69716;SDS011;65362;46.144;19.666;2022-12-20T06:27:22;15.30;;;8.95;;
69716;SDS011;65362;46.144;19.666;2022-12-20T06:30:12;11.07;;;8.70;;
69716;SDS011;65362;46.144;19.666;2022-12-20T06:33:05;10.18;;;8.48;;
69716;SDS011;65362;46.144;19.666;2022-12-20T06:35:33;14.20;;;8.93;;
69716;SDS011;65362;46.144;19.666;2022-12-20T06:38:00;10.55;;;7.80;;
69716;SDS011;65362;46.144;19.666;2022-12-20T06:40:31;12.88;;;9.15;;
69716;SDS011;65362;46.144;19.666;2022-12-20T06:43:00;11.35;;;8.70;;
69716;SDS011;65362;46.144;19.666;2022-12-20T06:45:28;12.73;;;8.52;;
69716;SDS011;65362;46.144;19.666;2022-12-20T06:47:56;10.85;;;8.60;;
69716;SDS011;65362;46.144;19.666;2022-12-20T06:50:25;9.90;;;8.20;;
69716;SDS011;65362;46.144;19.666;2022-12-20T06:52:54;10.02;;;7.75;;
69716;SDS011;65362;46.144;19.666;2022-12-20T06:55:23;10.65;;;8.00;;
69716;SDS011;65362;46.144;19.666;2022-12-20T06:57:51;11.63;;;8.40;;
69716;SDS011;65362;46.144;19.666;2022-12-20T07:00:19;14.38;;;8.77;;
69716;SDS011;65362;46.144;19.666;2022-12-20T07:02:47;10.50;;;8.38;;
69716;SDS011;65362;46.144;19.666;2022-12-20T07:05:15;12.90;;;8.40;;
69716;SDS011;65362;46.144;19.666;2022-12-20T07:07:42;11.45;;;7.78;;
69716;SDS011;65362;46.144;19.666;2022-12-20T07:10:11;10.45;;;8.15;;
69716;SDS011;65362;46.144;19.666;2022-12-20T07:12:39;11.18;;;7.75;;
69716;SDS011;65362;46.144;19.666;2022-12-20T07:15:14;12.57;;;8.20;;
69716;SDS011;65362;46.144;19.666;2022-12-20T07:17:42;10.63;;;8.20;;
69716;SDS011;65362;46.144;19.666;2022-12-20T07:20:10;10.68;;;8.00;;
69716;SDS011;65362;46.144;19.666;2022-12-20T07:22:40;10.63;;;7.75;;
69716;SDS011;65362;46.144;19.666;2022-12-20T07:25:09;10.48;;;7.60;;
69716;SDS011;65362;46.144;19.666;2022-12-20T07:27:37;9.30;;;7.72;;
69716;SDS011;65362;46.144;19.666;2022-12-20T07:30:05;11.50;;;7.90;;
69716;SDS011;65362;46.144;19.666;2022-12-20T07:32:33;9.88;;;7.55;;
69716;SDS011;65362;46.144;19.666;2022-12-20T07:35:00;9.70;;;8.00;;
69716;SDS011;65362;46.144;19.666;2022-12-20T07:37:28;11.70;;;8.18;;
69716;SDS011;65362;46.144;19.666;2022-12-20T07:39:56;9.65;;;7.13;;
69716;SDS011;65362;46.144;19.666;2022-12-20T07:42:24;10.30;;;7.72;;
69716;SDS011;65362;46.144;19.666;2022-12-20T07:45:01;11.40;;;7.88;;
69716;SDS011;65362;46.144;19.666;2022-12-20T07:47:29;8.77;;;7.15;;
69716;SDS011;65362;46.144;19.666;2022-12-20T07:49:57;9.45;;;7.40;;
69716;SDS011;65362;46.144;19.666;2022-12-20T07:52:24;10.38;;;7.40;;
69716;SDS011;65362;46.144;19.666;2022-12-20T07:54:57;9.15;;;7.22;;
69716;SDS011;65362;46.144;19.666;2022-12-20T07:57:30;11.05;;;7.72;;
69716;SDS011;65362;46.144;19.666;2022-12-20T08:00:03;10.70;;;7.85;;
69716;SDS011;65362;46.144;19.666;2022-12-20T08:02:39;8.90;;;7.13;;
69716;SDS011;65362;46.144;19.666;2022-12-20T08:05:15;10.50;;;7.80;;
69716;SDS011;65362;46.144;19.666;2022-12-20T08:07:43;10.80;;;7.60;;
69716;SDS011;65362;46.144;19.666;2022-12-20T08:10:13;9.48;;;7.10;;
69716;SDS011;65362;46.144;19.666;2022-12-20T08:12:42;10.35;;;7.80;;
69716;SDS011;65362;46.144;19.666;2022-12-20T08:15:13;9.10;;;7.25;;
69716;SDS011;65362;46.144;19.666;2022-12-20T08:17:41;10.02;;;7.53;;
69716;SDS011;65362;46.144;19.666;2022-12-20T08:20:08;9.45;;;7.25;;
69716;SDS011;65362;46.144;19.666;2022-12-20T08:22:36;8.70;;;7.07;;
69716;SDS011;65362;46.144;19.666;2022-12-20T08:25:04;8.98;;;6.72;;
69716;SDS011;65362;46.144;19.666;2022-12-20T08:27:32;9.25;;;7.55;;
69716;SDS011;65362;46.144;19.666;2022-12-20T08:29:59;9.25;;;7.18;;
69716;SDS011;65362;46.144;19.666;2022-12-20T08:32:27;8.93;;;7.45;;
69716;SDS011;65362;46.144;19.666;2022-12-20T08:34:55;8.73;;;7.20;;
69716;SDS011;65362;46.144;19.666;2022-12-20T08:37:22;8.60;;;7.20;;
69716;SDS011;65362;46.144;19.666;2022-12-20T08:39:50;8.30;;;6.88;;
69716;SDS011;65362;46.144;19.666;2022-12-20T08:42:17;8.05;;;7.03;;
69716;SDS011;65362;46.144;19.666;2022-12-20T08:44:45;10.98;;;8.02;;
69716;SDS011;65362;46.144;19.666;2022-12-20T08:47:12;9.07;;;7.88;;
69716;SDS011;65362;46.144;19.666;2022-12-20T08:49:40;10.30;;;7.50;;
69716;SDS011;65362;46.144;19.666;2022-12-20T08:52:13;10.00;;;7.53;;
69716;SDS011;65362;46.144;19.666;2022-12-20T08:54:41;10.88;;;7.97;;
69716;SDS011;65362;46.144;19.666;2022-12-20T08:57:09;10.43;;;7.95;;
69716;SDS011;65362;46.144;19.666;2022-12-20T08:59:36;9.90;;;7.53;;
69716;SDS011;65362;46.144;19.666;2022-12-20T09:02:03;9.35;;;7.70;;
69716;SDS011;65362;46.144;19.666;2022-12-20T09:04:32;10.55;;;8.00;;
69716;SDS011;65362;46.144;19.666;2022-12-20T09:07:00;9.85;;;7.80;;
69716;SDS011;65362;46.144;19.666;2022-12-20T09:09:28;9.52;;;7.78;;
69716;SDS011;65362;46.144;19.666;2022-12-20T09:11:55;8.95;;;7.20;;
69716;SDS011;65362;46.144;19.666;2022-12-20T09:14:24;10.05;;;7.75;;
69716;SDS011;65362;46.144;19.666;2022-12-20T09:16:51;9.27;;;7.68;;
69716;SDS011;65362;46.144;19.666;2022-12-20T09:19:19;9.52;;;7.55;;
69716;SDS011;65362;46.144;19.666;2022-12-20T09:21:46;8.65;;;7.55;;
69716;SDS011;65362;46.144;19.666;2022-12-20T09:24:14;9.20;;;7.43;;
69716;SDS011;65362;46.144;19.666;2022-12-20T09:26:41;11.70;;;7.10;;
69716;SDS011;65362;46.144;19.666;2022-12-20T09:29:11;8.88;;;7.18;;
69716;SDS011;65362;46.144;19.666;2022-12-20T09:31:39;10.13;;;7.10;;
69716;SDS011;65362;46.144;19.666;2022-12-20T09:34:07;9.55;;;7.40;;
69716;SDS011;65362;46.144;19.666;2022-12-20T09:36:36;10.15;;;7.63;;
69716;SDS011;65362;46.144;19.666;2022-12-20T09:39:04;9.45;;;7.50;;
69716;SDS011;65362;46.144;19.666;2022-12-20T09:41:32;10.75;;;7.55;;
69716;SDS011;65362;46.144;19.666;2022-12-20T09:46:58;8.95;;;7.28;;
69716;SDS011;65362;46.144;19.666;2022-12-20T09:49:38;9.02;;;7.30;;
69716;SDS011;65362;46.144;19.666;2022-12-20T09:57:30;9.02;;;7.20;;
69716;SDS011;65362;46.144;19.666;2022-12-20T10:00:00;9.50;;;7.78;;
69716;SDS011;65362;46.144;19.666;2022-12-20T10:02:30;11.73;;;7.78;;
69716;SDS011;65362;46.144;19.666;2022-12-20T10:05:40;9.43;;;7.38;;
69716;SDS011;65362;46.144;19.666;2022-12-20T10:11:21;8.80;;;7.38;;
69716;SDS011;65362;46.144;19.666;2022-12-20T10:17:32;8.07;;;7.13;;
69716;SDS011;65362;46.144;19.666;2022-12-20T10:26:04;11.18;;;7.78;;
69716;SDS011;65362;46.144;19.666;2022-12-20T10:28:36;8.95;;;7.22;;
69716;SDS011;65362;46.144;19.666;2022-12-20T10:31:05;8.65;;;6.85;;
69716;SDS011;65362;46.144;19.666;2022-12-20T10:33:34;9.43;;;7.13;;
69716;SDS011;65362;46.144;19.666;2022-12-20T10:38:58;9.70;;;7.40;;
69716;SDS011;65362;46.144;19.666;2022-12-20T10:46:48;8.52;;;7.20;;
69716;SDS011;65362;46.144;19.666;2022-12-20T10:51:55;9.50;;;7.25;;
69716;SDS011;65362;46.144;19.666;2022-12-20T10:54:41;9.43;;;7.90;;
69716;SDS011;65362;46.144;19.666;2022-12-20T10:59:53;8.98;;;7.10;;
69716;SDS011;65362;46.144;19.666;2022-12-20T11:02:27;9.20;;;7.75;;
69716;SDS011;65362;46.144;19.666;2022-12-20T11:10:40;10.23;;;8.00;;
69716;SDS011;65362;46.144;19.666;2022-12-20T11:13:17;9.32;;;8.00;;
69716;SDS011;65362;46.144;19.666;2022-12-20T11:15:48;9.70;;;7.60;;
69716;SDS011;65362;46.144;19.666;2022-12-20T11:18:42;8.77;;;7.65;;
69716;SDS011;65362;46.144;19.666;2022-12-20T11:24:24;10.02;;;8.25;;
69716;SDS011;65362;46.144;19.666;2022-12-20T11:30:29;10.27;;;7.55;;
69716;SDS011;65362;46.144;19.666;2022-12-20T11:36:04;8.95;;;7.55;;
69716;SDS011;65362;46.144;19.666;2022-12-20T11:38:41;8.85;;;7.30;;
69716;SDS011;65362;46.144;19.666;2022-12-20T11:49:32;9.88;;;7.85;;
69716;SDS011;65362;46.144;19.666;2022-12-20T11:52:11;11.77;;;7.38;;
69716;SDS011;65362;46.144;19.666;2022-12-20T11:54:42;9.88;;;7.07;;
69716;SDS011;65362;46.144;19.666;2022-12-20T11:57:20;10.30;;;7.93;;
69716;SDS011;65362;46.144;19.666;2022-12-20T12:00:23;9.95;;;7.38;;
69716;SDS011;65362;46.144;19.666;2022-12-20T12:02:54;15.43;;;8.13;;
69716;SDS011;65362;46.144;19.666;2022-12-20T12:05:40;13.23;;;7.63;;
69716;SDS011;65362;46.144;19.666;2022-12-20T12:08:13;10.55;;;7.28;;
69716;SDS011;65362;46.144;19.666;2022-12-20T12:10:52;11.70;;;7.82;;
69716;SDS011;65362;46.144;19.666;2022-12-20T12:13:25;9.68;;;7.43;;
69716;SDS011;65362;46.144;19.666;2022-12-20T12:18:44;12.68;;;7.53;;
69716;SDS011;65362;46.144;19.666;2022-12-20T12:24:46;8.88;;;7.18;;
69716;SDS011;65362;46.144;19.666;2022-12-20T12:26:59;10.20;;;7.25;;
69716;SDS011;65362;46.144;19.666;2022-12-20T12:29:27;12.38;;;7.93;;
69716;SDS011;65362;46.144;19.666;2022-12-20T12:40:02;9.70;;;7.05;;
69716;SDS011;65362;46.144;19.666;2022-12-20T12:45:59;9.30;;;7.30;;
69716;SDS011;65362;46.144;19.666;2022-12-20T12:48:39;11.23;;;8.05;;
69716;SDS011;65362;46.144;19.666;2022-12-20T12:51:11;10.10;;;7.38;;
69716;SDS011;65362;46.144;19.666;2022-12-20T12:53:41;9.70;;;8.00;;
69716;SDS011;65362;46.144;19.666;2022-12-20T13:10:56;10.77;;;8.50;;
69716;SDS011;65362;46.144;19.666;2022-12-20T13:17:52;12.77;;;8.63;;
69716;SDS011;65362;46.144;19.666;2022-12-20T13:20:31;15.88;;;8.35;;
69716;SDS011;65362;46.144;19.666;2022-12-20T13:25:37;12.73;;;8.43;;
69716;SDS011;65362;46.144;19.666;2022-12-20T13:43:49;11.98;;;8.63;;
69716;SDS011;65362;46.144;19.666;2022-12-20T13:49:21;11.50;;;8.68;;
69716;SDS011;65362;46.144;19.666;2022-12-20T13:52:05;11.50;;;8.63;;
69716;SDS011;65362;46.144;19.666;2022-12-20T13:54:45;12.77;;;9.35;;
69716;SDS011;65362;46.144;19.666;2022-12-20T13:57:16;12.98;;;8.68;;
69716;SDS011;65362;46.144;19.666;2022-12-20T13:59:50;10.07;;;8.48;;
69716;SDS011;65362;46.144;19.666;2022-12-20T14:02:34;12.70;;;9.07;;
69716;SDS011;65362;46.144;19.666;2022-12-20T14:05:24;11.23;;;8.77;;
69716;SDS011;65362;46.144;19.666;2022-12-20T14:08:14;12.43;;;9.25;;
69716;SDS011;65362;46.144;19.666;2022-12-20T14:10:42;11.95;;;9.35;;
69716;SDS011;65362;46.144;19.666;2022-12-20T14:13:20;10.85;;;9.00;;
69716;SDS011;65362;46.144;19.666;2022-12-20T14:15:50;11.77;;;8.88;;
69716;SDS011;65362;46.144;19.666;2022-12-20T14:18:24;12.02;;;8.98;;
69716;SDS011;65362;46.144;19.666;2022-12-20T14:20:53;12.10;;;8.95;;
69716;SDS011;65362;46.144;19.666;2022-12-20T14:23:25;11.00;;;8.70;;
69716;SDS011;65362;46.144;19.666;2022-12-20T14:26:00;13.18;;;9.55;;
69716;SDS011;65362;46.144;19.666;2022-12-20T14:30:58;11.32;;;9.10;;
69716;SDS011;65362;46.144;19.666;2022-12-20T14:33:37;11.88;;;8.77;;
69716;SDS011;65362;46.144;19.666;2022-12-20T14:38:34;10.73;;;8.57;;
69716;SDS011;65362;46.144;19.666;2022-12-20T14:41:01;11.00;;;8.90;;
69716;SDS011;65362;46.144;19.666;2022-12-20T14:43:32;12.35;;;9.15;;
69716;SDS011;65362;46.144;19.666;2022-12-20T14:46:07;11.73;;;8.13;;
69716;SDS011;65362;46.144;19.666;2022-12-20T14:48:43;11.15;;;9.23;;
69716;SDS011;65362;46.144;19.666;2022-12-20T14:51:11;12.10;;;8.90;;
69716;SDS011;65362;46.144;19.666;2022-12-20T14:53:43;10.85;;;8.85;;
69716;SDS011;65362;46.144;19.666;2022-12-20T14:56:12;11.95;;;8.60;;
69716;SDS011;65362;46.144;19.666;2022-12-20T14:58:43;10.07;;;8.18;;
69716;SDS011;65362;46.144;19.666;2022-12-20T15:03:52;11.23;;;8.75;;
69716;SDS011;65362;46.144;19.666;2022-12-20T15:06:39;11.30;;;8.60;;
69716;SDS011;65362;46.144;19.666;2022-12-20T15:09:09;11.10;;;8.95;;
69716;SDS011;65362;46.144;19.666;2022-12-20T15:11:37;11.85;;;9.40;;
69716;SDS011;65362;46.144;19.666;2022-12-20T15:16:51;11.68;;;8.73;;
69716;SDS011;65362;46.144;19.666;2022-12-20T15:19:19;11.68;;;9.27;;
69716;SDS011;65362;46.144;19.666;2022-12-20T15:21:46;12.95;;;10.02;;
69716;SDS011;65362;46.144;19.666;2022-12-20T15:24:15;12.70;;;9.60;;
69716;SDS011;65362;46.144;19.666;2022-12-20T15:26:46;12.43;;;9.85;;
69716;SDS011;65362;46.144;19.666;2022-12-20T15:29:15;15.32;;;10.27;;
69716;SDS011;65362;46.144;19.666;2022-12-20T15:31:52;13.30;;;10.65;;
69716;SDS011;65362;46.144;19.666;2022-12-20T15:34:34;14.85;;;10.73;;
69716;SDS011;65362;46.144;19.666;2022-12-20T15:37:04;13.20;;;10.40;;
69716;SDS011;65362;46.144;19.666;2022-12-20T15:39:32;14.13;;;10.77;;
69716;SDS011;65362;46.144;19.666;2022-12-20T15:42:00;17.70;;;10.68;;
69716;SDS011;65362;46.144;19.666;2022-12-20T15:44:29;13.45;;;10.68;;
69716;SDS011;65362;46.144;19.666;2022-12-20T15:46:57;16.13;;;11.27;;
69716;SDS011;65362;46.144;19.666;2022-12-20T15:49:27;14.48;;;10.82;;
69716;SDS011;65362;46.144;19.666;2022-12-20T15:51:56;16.13;;;11.00;;
69716;SDS011;65362;46.144;19.666;2022-12-20T15:54:31;13.13;;;10.73;;
69716;SDS011;65362;46.144;19.666;2022-12-20T15:57:01;15.30;;;11.25;;
69716;SDS011;65362;46.144;19.666;2022-12-20T15:59:33;15.02;;;10.90;;
69716;SDS011;65362;46.144;19.666;2022-12-20T16:02:24;16.15;;;10.63;;
69716;SDS011;65362;46.144;19.666;2022-12-20T16:04:54;15.75;;;11.35;;
69716;SDS011;65362;46.144;19.666;2022-12-20T16:07:21;17.00;;;11.93;;
69716;SDS011;65362;46.144;19.666;2022-12-20T16:09:49;14.35;;;11.27;;
69716;SDS011;65362;46.144;19.666;2022-12-20T16:12:24;15.90;;;11.75;;
69716;SDS011;65362;46.144;19.666;2022-12-20T16:14:54;15.32;;;11.52;;
69716;SDS011;65362;46.144;19.666;2022-12-20T16:17:22;15.48;;;11.48;;
69716;SDS011;65362;46.144;19.666;2022-12-20T16:19:50;15.65;;;11.40;;
69716;SDS011;65362;46.144;19.666;2022-12-20T16:22:18;15.13;;;11.93;;
69716;SDS011;65362;46.144;19.666;2022-12-20T16:24:48;16.00;;;12.02;;
69716;SDS011;65362;46.144;19.666;2022-12-20T16:27:16;15.98;;;11.40;;
69716;SDS011;65362;46.144;19.666;2022-12-20T16:29:43;15.73;;;11.60;;
69716;SDS011;65362;46.144;19.666;2022-12-20T16:32:12;15.13;;;11.30;;
69716;SDS011;65362;46.144;19.666;2022-12-20T16:34:41;16.75;;;11.32;;
69716;SDS011;65362;46.144;19.666;2022-12-20T16:37:09;13.73;;;11.15;;
69716;SDS011;65362;46.144;19.666;2022-12-20T16:39:38;16.67;;;12.20;;
69716;SDS011;65362;46.144;19.666;2022-12-20T16:42:15;15.18;;;11.68;;
69716;SDS011;65362;46.144;19.666;2022-12-20T16:44:51;17.55;;;11.40;;
69716;SDS011;65362;46.144;19.666;2022-12-20T16:47:20;13.38;;;11.15;;
69716;SDS011;65362;46.144;19.666;2022-12-20T16:49:48;16.50;;;11.55;;
69716;SDS011;65362;46.144;19.666;2022-12-20T16:52:20;15.18;;;11.07;;
69716;SDS011;65362;46.144;19.666;2022-12-20T16:54:49;16.33;;;11.55;;
69716;SDS011;65362;46.144;19.666;2022-12-20T16:57:17;17.08;;;12.30;;
69716;SDS011;65362;46.144;19.666;2022-12-20T16:59:46;15.77;;;11.63;;
69716;SDS011;65362;46.144;19.666;2022-12-20T17:02:20;16.90;;;12.68;;
69716;SDS011;65362;46.144;19.666;2022-12-20T17:07:19;16.00;;;12.27;;
69716;SDS011;65362;46.144;19.666;2022-12-20T17:09:47;15.38;;;11.65;;
69716;SDS011;65362;46.144;19.666;2022-12-20T17:12:32;16.23;;;12.02;;
69716;SDS011;65362;46.144;19.666;2022-12-20T17:14:59;14.13;;;11.18;;